Aérodrome :
LOGIN :

S'inscrire | Disclaimer

   EN    FR    IT 

 










Légende :    VFR   VFR Marginal   IFR   IFR Intensif   IFR Très Intensif
Visi : 
Plafond : 
>= 8 km
>= 3000ft
5 à 8 km
1000 à 3000 ft
1500m à 5 km
500 à 1000 ft
800 à 1500m
200 à 500 ft
< 800m
< 200 ft
Symboles :   Orages  Brouillard  Fortes neiges  Fortes précipitations  Vent > 20 kt
SIGMETs :   Divers  Orages  Givrage  Turbulence  Onde Orograph.  Cendres Volcan.







- Altitude de l'aérodrome : 485 ft
- Code IATA : QSA


LELL - Sabadell

DERNIER METAR :
  • 291300Z 12010KT 080V170 9999 FEW070 27/09 Q1016

METARs EXPIRÉS :
  • 291230Z 12010G21KT 090V160 9999 FEW070 28/09 Q1016
  • 291200Z 14008KT 100V180 9999 R31///// FEW070 27/09 Q1016
  • 291130Z 14010KT 100V200 9999 FEW070 27/09 Q1016
  • 291100Z 12009KT 070V140 9999 FEW070 27/09 Q1016
  • 291030Z VRB07KT 9999 FEW070 28/10 Q1016

TAF TAF LELL
Valide du 29 à 09h jusqu'au 30 à 09h UTC


290800Z 2909/3009 VRB04KT 9999 FEW030 TX30/2913Z TN16/3006Z
BECMG 2909/2912 13010KT
BECMG 2918/2921 VRB04KT
Pas de NOTAMs connus pour ce terrain.



MET'MAP, la Météo Aéronautique d'un coup d'oeil ! - Copyright ORBIFLY Décembre 2007 - Disclaimer

ORBIFLY MET'MAP TEAM :

Programmation & Développement : Alexandra Zaïnal
Conception & Développement : Baudouin d'Aumeries
Co-Programmation & Développement : Marc-Olivier Méhu
Soutien technique & logistique : Manuel Goepfert

Contact : metmap@orbifly.com




SOURCES & CREDITS :

   NOAA